createdAt,value
2023-05-06T00:00:44.256Z,101252.97
2023-05-06T00:03:14.838Z,101253.75
2023-05-06T00:05:42.563Z,101244.38
2023-05-06T00:08:10.072Z,101214.22
2023-05-06T00:10:37.391Z,101215.16
2023-05-06T00:13:04.997Z,101259.63
2023-05-06T00:15:32.436Z,101213.00
2023-05-06T00:18:01.311Z,101242.56
2023-05-06T00:20:29.260Z,101248.75
2023-05-06T00:22:56.834Z,101246.28
2023-05-06T00:25:24.089Z,101253.19
2023-05-06T00:27:51.690Z,101218.25
2023-05-06T00:30:19.656Z,101252.53
2023-05-06T00:32:47.160Z,101215.16
2023-05-06T00:35:14.508Z,101265.19
2023-05-06T00:37:45.684Z,101253.88
2023-05-06T00:40:14.374Z,101260.41
2023-05-06T00:42:41.951Z,101267.13
2023-05-06T00:45:09.980Z,101243.75
2023-05-06T00:47:37.916Z,101202.13
2023-05-06T00:50:05.713Z,101231.38
2023-05-06T00:52:34.728Z,101215.00
2023-05-06T00:55:02.164Z,101249.09
2023-05-06T00:57:29.719Z,101220.22
2023-05-06T00:59:57.040Z,101261.25
2023-05-06T01:02:30.734Z,101227.25
2023-05-06T01:05:04.237Z,101250.78
2023-05-06T01:07:46.623Z,101262.00
2023-05-06T01:10:43.217Z,101232.25
2023-05-06T01:13:41.701Z,101266.81
2023-05-06T01:16:12.769Z,101232.63
2023-05-06T01:18:43.078Z,101245.34
2023-05-06T01:21:12.804Z,101264.13
2023-05-06T01:23:53.443Z,101281.59
2023-05-06T01:26:21.122Z,101282.59
2023-05-06T01:28:48.866Z,101256.38
2023-05-06T01:31:30.169Z,101234.81
2023-05-06T01:34:21.148Z,101293.03
2023-05-06T01:36:54.474Z,101289.44
2023-05-06T01:39:26.318Z,101287.34
2023-05-06T01:41:57.477Z,101247.28
2023-05-06T01:44:27.912Z,101294.41
2023-05-06T01:46:56.667Z,101272.56
2023-05-06T01:49:26.342Z,101279.09
2023-05-06T01:51:54.034Z,101245.41
2023-05-06T01:54:21.624Z,101262.94
2023-05-06T01:56:48.816Z,101273.84
2023-05-06T01:59:16.409Z,101245.63
2023-05-06T02:01:43.747Z,101278.56
2023-05-06T02:04:11.369Z,101266.53
2023-05-06T02:06:38.678Z,101273.91
2023-05-06T02:09:06.674Z,101246.75
2023-05-06T02:11:38.948Z,101274.97
2023-05-06T02:14:08.134Z,101274.56
2023-05-06T02:16:36.453Z,101281.50
2023-05-06T02:19:04.117Z,101272.03
2023-05-06T02:21:32.104Z,101234.03
2023-05-06T02:23:59.616Z,101266.34
2023-05-06T02:26:26.869Z,101264.97
2023-05-06T02:28:54.457Z,101269.88
2023-05-06T02:31:21.673Z,101226.28
2023-05-06T02:33:49.143Z,101268.44
2023-05-06T02:36:16.457Z,101276.88
2023-05-06T02:38:44.017Z,101265.84
2023-05-06T02:41:11.345Z,101231.28
2023-05-06T02:43:38.824Z,101276.94
2023-05-06T02:46:06.088Z,101279.44
2023-05-06T02:48:33.652Z,101243.47
2023-05-06T02:51:02.133Z,101264.75
2023-05-06T02:53:29.696Z,101270.56
2023-05-06T02:55:56.956Z,101263.41
2023-05-06T02:58:24.725Z,101266.34
2023-05-06T03:00:52.254Z,101219.34
2023-05-06T03:03:19.820Z,101141.00
2023-05-06T03:05:47.055Z,101266.53
2023-05-06T03:08:14.721Z,101280.47
2023-05-06T03:10:41.951Z,101268.69
2023-05-06T03:13:09.676Z,101278.63
2023-05-06T03:15:37.420Z,101276.16
2023-05-06T03:18:05.146Z,101278.25
2023-05-06T03:20:32.614Z,101277.94
2023-05-06T03:23:01.568Z,101252.47
2023-05-06T03:25:29.628Z,101278.16
2023-05-06T03:27:57.617Z,101251.28
2023-05-06T03:30:24.947Z,101273.09
2023-05-06T03:32:56.665Z,101256.16
2023-05-06T03:35:29.957Z,101254.31
2023-05-06T03:38:00.033Z,101295.66
2023-05-06T03:40:34.175Z,101270.03
2023-05-06T03:43:01.932Z,101271.84
2023-05-06T03:45:29.161Z,101263.28
2023-05-06T03:47:59.361Z,101277.31
2023-05-06T03:50:27.300Z,101280.66
2023-05-06T03:52:55.700Z,101278.41
2023-05-06T03:55:25.331Z,101274.72
2023-05-06T03:57:52.839Z,101279.81
2023-05-06T04:00:21.406Z,101235.50
2023-05-06T04:02:53.210Z,101254.38
2023-05-06T04:05:27.340Z,101250.97
2023-05-06T04:07:55.501Z,101241.31
2023-05-06T04:10:22.774Z,101288.34
2023-05-06T04:12:53.148Z,101280.63
2023-05-06T04:15:25.798Z,101247.47
2023-05-06T04:17:53.371Z,101245.50
2023-05-06T04:20:21.754Z,101248.38
2023-05-06T04:22:49.376Z,101261.78
2023-05-06T04:25:19.656Z,101280.06
2023-05-06T04:27:47.751Z,101265.28
2023-05-06T04:30:15.308Z,101277.06
2023-05-06T04:32:43.558Z,101268.81
2023-05-06T04:35:11.497Z,101229.69
2023-05-06T04:37:41.442Z,101246.81
2023-05-06T04:40:13.928Z,101282.28
2023-05-06T04:42:43.981Z,101273.88
2023-05-06T04:45:18.095Z,101276.72
2023-05-06T04:47:49.154Z,101267.00
2023-05-06T04:50:18.225Z,101290.97
2023-05-06T04:52:46.012Z,101223.88
2023-05-06T04:55:14.533Z,101243.53
2023-05-06T04:57:47.493Z,101207.47
2023-05-06T05:00:16.608Z,101247.53
2023-05-06T05:02:44.182Z,101264.53
2023-05-06T05:05:12.638Z,101277.03
2023-05-06T05:07:42.010Z,101241.22
2023-05-06T05:10:10.518Z,101269.59
2023-05-06T05:12:39.295Z,101272.22
2023-05-06T05:15:07.340Z,101271.22
2023-05-06T05:17:35.004Z,101267.19
2023-05-06T05:20:03.268Z,101271.41
2023-05-06T05:22:32.387Z,101262.38
2023-05-06T05:25:00.532Z,101247.13
2023-05-06T05:27:28.312Z,101262.03
2023-05-06T05:29:57.528Z,101258.91
2023-05-06T05:32:25.173Z,101254.56
2023-05-06T05:34:53.190Z,101216.69
2023-05-06T05:37:20.954Z,101264.63
2023-05-06T05:39:48.688Z,101254.91
2023-05-06T05:42:17.440Z,101248.09
2023-05-06T05:44:46.444Z,101258.06
2023-05-06T05:47:15.020Z,101226.09
2023-05-06T05:49:42.588Z,101210.84
2023-05-06T05:52:10.781Z,101253.38
2023-05-06T05:54:38.321Z,101246.03
2023-05-06T05:57:07.066Z,101222.47
2023-05-06T05:59:34.816Z,101284.25
2023-05-06T06:02:05.365Z,101260.31
2023-05-06T06:04:33.069Z,101250.50
2023-05-06T06:07:02.121Z,101254.38
2023-05-06T06:09:32.007Z,101256.59
2023-05-06T06:12:02.064Z,101255.78
2023-05-06T06:14:31.082Z,101263.91
2023-05-06T06:16:58.861Z,101272.19
2023-05-06T06:19:26.312Z,101273.03
2023-05-06T06:21:53.920Z,101270.75
2023-05-06T06:24:21.225Z,101227.28
2023-05-06T06:26:48.791Z,101253.00
2023-05-06T06:29:16.133Z,101262.22
2023-05-06T06:31:43.620Z,101268.50
2023-05-06T06:34:12.709Z,101266.84
2023-05-06T06:36:45.152Z,101227.75
2023-05-06T06:39:12.997Z,101234.09
2023-05-06T06:41:40.692Z,101263.78
2023-05-06T06:44:07.924Z,101266.00
2023-05-06T06:46:35.469Z,101259.88
2023-05-06T06:49:02.640Z,101270.88
2023-05-06T06:51:31.482Z,101228.38
2023-05-06T06:53:58.714Z,101225.72
2023-05-06T06:56:26.411Z,101248.84
2023-05-06T06:58:53.681Z,101223.75
2023-05-06T07:01:21.433Z,101251.97
2023-05-06T07:03:48.678Z,101238.22
2023-05-06T07:06:16.295Z,101252.66
2023-05-06T07:08:43.569Z,101233.97
2023-05-06T07:11:12.229Z,101206.09
2023-05-06T07:13:39.535Z,101254.09
2023-05-06T07:16:07.053Z,101248.09
2023-05-06T07:18:34.220Z,101213.81
2023-05-06T07:21:01.924Z,101213.81
2023-05-06T07:23:31.198Z,101227.44
2023-05-06T07:25:59.921Z,101239.66
2023-05-06T07:28:27.508Z,101241.56
2023-05-06T07:30:55.857Z,101209.28
2023-05-06T07:33:23.092Z,101201.03
2023-05-06T07:35:50.553Z,101234.38
2023-05-06T07:38:18.181Z,101237.69
2023-05-06T07:40:45.884Z,101240.88
2023-05-06T07:43:13.144Z,101234.75
2023-05-06T07:45:41.215Z,101227.13
2023-05-06T07:48:08.497Z,101231.53
2023-05-06T07:50:36.173Z,101244.06
2023-05-06T07:53:04.140Z,101256.97
2023-05-06T07:55:33.833Z,101244.09
2023-05-06T07:58:02.301Z,101213.59
2023-05-06T08:00:29.758Z,101211.00
2023-05-06T08:02:57.062Z,101235.69
2023-05-06T08:05:24.626Z,101245.06
2023-05-06T08:07:51.949Z,101206.78
2023-05-06T08:10:20.018Z,101258.41
2023-05-06T08:12:47.217Z,101250.25
2023-05-06T08:15:14.913Z,101256.19
2023-05-06T08:17:42.274Z,101242.75
2023-05-06T08:20:10.634Z,101246.19
2023-05-06T08:22:37.914Z,101251.34
2023-05-06T08:25:05.889Z,101237.63
2023-05-06T08:27:33.207Z,101201.94
2023-05-06T08:30:00.722Z,101244.84
2023-05-06T08:32:27.983Z,101240.88
2023-05-06T08:34:56.143Z,101237.22
2023-05-06T08:37:23.356Z,101204.50
2023-05-06T08:39:51.067Z,101192.66
2023-05-06T08:42:18.426Z,101210.22
2023-05-06T08:44:46.080Z,101197.06
2023-05-06T08:47:13.310Z,101244.69
2023-05-06T08:49:40.874Z,101212.13
2023-05-06T08:52:09.000Z,101228.50
2023-05-06T08:54:37.161Z,101220.03
2023-05-06T08:57:10.280Z,101216.94
2023-05-06T08:59:40.255Z,101209.44
2023-05-06T09:02:08.507Z,101238.78
2023-05-06T09:04:37.161Z,101207.47
2023-05-06T09:07:04.737Z,101219.50
2023-05-06T09:09:31.961Z,101192.97
2023-05-06T09:12:01.909Z,101189.53
2023-05-06T09:14:29.101Z,101227.59
2023-05-06T09:16:56.663Z,101225.72
2023-05-06T09:19:25.798Z,101237.50
2023-05-06T09:21:53.396Z,101216.00
2023-05-06T09:24:21.366Z,101219.25
2023-05-06T09:26:48.891Z,101219.38
2023-05-06T09:29:16.288Z,101194.63
2023-05-06T09:31:46.538Z,101207.00
2023-05-06T09:34:15.264Z,101225.00
2023-05-06T09:36:43.144Z,101232.44
2023-05-06T09:39:10.547Z,101218.81
2023-05-06T09:41:38.462Z,101179.81
2023-05-06T09:44:06.323Z,101225.63
2023-05-06T09:46:34.603Z,101218.66
2023-05-06T09:49:02.138Z,101213.06
2023-05-06T09:51:31.147Z,101206.19
2023-05-06T09:54:00.907Z,101221.81
2023-05-06T09:56:30.833Z,101166.91
2023-05-06T09:59:01.500Z,101171.38
2023-05-06T10:01:36.686Z,101201.59
2023-05-06T10:04:09.100Z,101210.22
2023-05-06T10:06:39.855Z,101177.88
2023-05-06T10:09:09.350Z,101221.22
2023-05-06T10:11:37.210Z,101200.31
2023-05-06T10:14:05.348Z,101194.88
2023-05-06T10:16:37.892Z,101200.41
2023-05-06T10:19:08.093Z,101155.59
2023-05-06T10:21:39.862Z,101200.78
2023-05-06T10:24:11.481Z,101193.28
2023-05-06T10:26:39.327Z,101188.94
2023-05-06T10:29:11.237Z,101186.06
2023-05-06T10:31:44.996Z,101157.22
2023-05-06T10:34:12.398Z,101189.13
2023-05-06T10:36:42.616Z,101188.09
2023-05-06T10:39:13.743Z,101164.75
2023-05-06T10:41:41.682Z,101178.47
2023-05-06T10:44:10.223Z,101188.63
2023-05-06T10:46:57.306Z,101176.41
2023-05-06T10:49:24.920Z,101155.47
2023-05-06T10:52:14.841Z,101183.72
2023-05-06T10:54:53.001Z,101146.38
2023-05-06T10:57:27.353Z,101178.88
2023-05-06T10:59:55.637Z,101170.75
2023-05-06T11:02:24.203Z,101172.47
2023-05-06T11:04:53.302Z,101174.25
2023-05-06T11:07:24.620Z,101173.56
2023-05-06T11:09:59.613Z,101121.88
2023-05-06T11:12:50.101Z,101148.63
2023-05-06T11:15:24.084Z,101188.41
2023-05-06T11:17:53.348Z,101136.16
2023-05-06T11:20:26.065Z,101159.22
2023-05-06T11:22:54.646Z,101175.34
2023-05-06T11:25:47.256Z,101130.09
2023-05-06T11:28:15.529Z,101170.22
2023-05-06T11:30:44.331Z,101167.19
2023-05-06T11:33:21.783Z,101158.44
2023-05-06T11:35:49.317Z,101161.09
2023-05-06T11:38:17.006Z,101149.13
2023-05-06T11:40:44.508Z,101163.78
2023-05-06T11:43:16.609Z,101167.59
2023-05-06T11:45:43.717Z,101162.84
2023-05-06T11:48:15.503Z,101155.00
2023-05-06T11:50:47.566Z,101156.22
2023-05-06T11:53:19.153Z,101129.53
2023-05-06T11:55:47.201Z,101141.66
2023-05-06T11:58:16.783Z,101150.81
2023-05-06T12:00:53.592Z,101163.50
2023-05-06T12:03:21.979Z,101170.56
2023-05-06T12:05:50.924Z,101132.34
2023-05-06T12:08:27.275Z,101129.56
2023-05-06T12:10:58.536Z,101162.94
2023-05-06T12:13:27.218Z,101160.72
2023-05-06T12:15:55.580Z,101143.00
2023-05-06T12:18:24.430Z,101148.06
2023-05-06T12:20:55.625Z,101123.09
2023-05-06T12:23:23.253Z,101151.59
2023-05-06T12:26:08.373Z,101147.03
2023-05-06T12:28:37.091Z,101157.88
2023-05-06T12:31:20.972Z,101144.09
2023-05-06T12:33:50.183Z,101118.34
2023-05-06T12:36:18.440Z,101109.66
2023-05-06T12:38:52.742Z,101141.75
2023-05-06T12:41:21.486Z,101113.66
2023-05-06T12:43:49.480Z,101141.97
2023-05-06T12:46:17.274Z,101112.13
2023-05-06T12:49:01.863Z,101127.81
2023-05-06T12:51:31.046Z,101128.44
2023-05-06T12:53:58.726Z,101125.34
2023-05-06T12:56:26.213Z,101152.28
2023-05-06T12:59:01.213Z,101128.97
2023-05-06T13:01:28.567Z,101130.09
2023-05-06T13:03:59.218Z,101102.47
2023-05-06T13:06:26.489Z,101127.41
2023-05-06T13:08:54.012Z,101140.03
2023-05-06T13:11:22.355Z,101083.84
2023-05-06T13:13:49.971Z,101126.13
2023-05-06T13:16:17.408Z,101099.53
2023-05-06T13:18:44.968Z,101086.34
2023-05-06T13:21:14.117Z,101102.69
2023-05-06T13:23:47.060Z,101121.06
2023-05-06T13:26:14.774Z,101111.00
2023-05-06T13:28:42.377Z,101126.44
2023-05-06T13:31:10.024Z,101123.22
2023-05-06T13:33:37.803Z,101097.81
2023-05-06T13:36:05.732Z,101108.44
2023-05-06T13:38:33.354Z,101130.56
2023-05-06T13:41:00.617Z,101109.78
2023-05-06T13:43:28.149Z,101095.59
2023-05-06T13:45:55.683Z,101127.13
2023-05-06T13:48:23.190Z,101105.47
2023-05-06T13:50:50.759Z,101089.69
2023-05-06T13:53:18.577Z,101134.72
2023-05-06T13:55:47.075Z,101133.63
2023-05-06T13:58:14.760Z,101120.03
2023-05-06T14:00:42.145Z,101112.72
2023-05-06T14:03:09.954Z,101100.69
2023-05-06T14:05:37.657Z,101076.66
2023-05-06T14:08:05.610Z,101105.97
2023-05-06T14:10:32.920Z,101111.69
2023-05-06T14:13:00.460Z,101113.16
2023-05-06T14:15:27.863Z,101107.88
2023-05-06T14:17:55.541Z,101082.50
2023-05-06T14:20:22.937Z,101111.00
2023-05-06T14:22:50.478Z,101112.28
2023-05-06T14:25:17.741Z,101084.13
2023-05-06T14:27:45.656Z,101106.97
2023-05-06T14:30:13.406Z,101114.81
2023-05-06T14:32:41.054Z,101095.44
2023-05-06T14:35:09.165Z,101101.53
2023-05-06T14:37:37.912Z,101104.16
2023-05-06T14:40:06.309Z,101078.34
2023-05-06T14:42:35.812Z,101098.50
2023-05-06T14:45:03.237Z,101098.16
2023-05-06T14:47:31.013Z,101090.88
2023-05-06T14:49:58.394Z,101079.00
2023-05-06T14:52:25.998Z,101072.63
2023-05-06T14:54:53.254Z,101078.34
2023-05-06T14:57:21.806Z,101086.03
2023-05-06T14:59:50.507Z,101066.56
2023-05-06T15:02:18.242Z,101075.94
2023-05-06T15:04:46.144Z,101092.22
2023-05-06T15:07:13.644Z,101084.25
2023-05-06T15:09:43.957Z,101062.38
2023-05-06T15:12:11.548Z,101071.28
2023-05-06T15:14:39.877Z,101081.09
2023-05-06T15:17:07.795Z,101084.44
2023-05-06T15:19:35.250Z,101080.56
2023-05-06T15:22:03.561Z,101058.69
2023-05-06T15:24:30.747Z,101088.88
2023-05-06T15:26:58.338Z,101086.22
2023-05-06T15:29:25.632Z,101056.28
2023-05-06T15:31:53.231Z,101084.25
2023-05-06T15:34:20.882Z,101084.84
2023-05-06T15:36:53.382Z,101063.59
2023-05-06T15:39:20.993Z,101087.19
2023-05-06T15:41:48.636Z,101049.41
2023-05-06T15:44:16.339Z,101081.91
2023-05-06T15:46:44.096Z,101081.84
2023-05-06T15:51:41.800Z,101073.84
2023-05-06T15:54:09.047Z,101051.59
2023-05-06T15:56:40.685Z,101055.28
2023-05-06T15:59:09.107Z,101063.97
2023-05-06T16:02:16.650Z,101053.59
2023-05-06T16:04:24.451Z,101079.09
2023-05-06T16:06:52.411Z,101071.19
2023-05-06T16:09:19.659Z,101065.31
2023-05-06T16:11:47.295Z,101067.50
2023-05-06T16:14:14.625Z,101072.25
2023-05-06T16:16:42.141Z,101077.25
2023-05-06T16:19:09.557Z,101069.22
2023-05-06T16:21:37.556Z,101087.06
2023-05-06T16:24:04.991Z,101026.63
2023-05-06T16:26:32.630Z,101052.97
2023-05-06T16:29:01.522Z,101083.41
2023-05-06T16:31:29.273Z,101083.78
2023-05-06T16:33:56.642Z,101051.53
2023-05-06T16:36:24.302Z,101047.88
2023-05-06T16:38:51.606Z,101081.53
2023-05-06T16:41:19.117Z,101043.81
2023-05-06T16:43:46.472Z,101085.38
2023-05-06T16:46:14.717Z,101094.88
2023-05-06T16:48:42.076Z,101082.66
2023-05-06T16:51:10.591Z,101050.16
2023-05-06T16:53:37.871Z,101076.78
2023-05-06T16:56:05.670Z,101083.53
2023-05-06T16:58:33.304Z,101089.25
2023-05-06T17:01:01.054Z,101086.78
2023-05-06T17:03:28.383Z,101091.94
2023-05-06T17:05:55.895Z,101071.69
2023-05-06T17:08:24.461Z,101055.19
2023-05-06T17:10:54.313Z,101055.97
2023-05-06T17:13:21.550Z,101062.44
2023-05-06T17:15:49.308Z,101087.63
2023-05-06T17:18:16.577Z,101086.78
2023-05-06T17:20:54.839Z,101095.13
2023-05-06T17:23:24.515Z,101089.38
2023-05-06T17:25:52.101Z,101057.38
2023-05-06T17:28:19.428Z,101053.06
2023-05-06T17:30:47.109Z,101068.75
2023-05-06T17:33:14.514Z,101081.63
2023-05-06T17:35:42.006Z,101089.34
2023-05-06T17:38:11.943Z,101086.78
2023-05-06T17:40:39.550Z,101097.91
2023-05-06T17:43:07.465Z,101090.19
2023-05-06T17:45:35.152Z,101088.63
2023-05-06T17:48:02.522Z,101078.94
2023-05-06T17:50:30.328Z,101097.75
2023-05-06T17:52:57.705Z,101089.69
2023-05-06T17:55:25.425Z,101095.25
2023-05-06T17:57:52.883Z,101094.66
2023-05-06T18:00:21.651Z,101089.91
2023-05-06T18:02:49.181Z,101090.66
2023-05-06T18:05:17.710Z,101059.34
2023-05-06T18:07:45.193Z,101052.75
2023-05-06T18:10:12.803Z,101077.38
2023-05-06T18:12:40.508Z,101109.22
2023-05-06T18:15:09.066Z,101064.94
2023-05-06T18:17:36.700Z,101060.19
2023-05-06T18:20:06.578Z,101084.91
2023-05-06T18:22:34.807Z,101108.47
2023-05-06T18:25:02.685Z,101063.00
2023-05-06T18:27:32.299Z,101100.03
2023-05-06T18:29:59.601Z,101103.16
2023-05-06T18:32:27.156Z,101067.88
2023-05-06T18:34:55.315Z,101111.38
2023-05-06T18:37:22.873Z,101106.25
2023-05-06T18:39:50.367Z,101091.16
2023-05-06T18:42:18.044Z,101052.97
2023-05-06T18:44:45.252Z,101118.81
2023-05-06T18:47:12.775Z,101078.09
2023-05-06T18:49:39.951Z,101113.16
2023-05-06T18:52:08.460Z,101116.88
2023-05-06T18:54:35.643Z,101096.97
2023-05-06T18:57:03.276Z,101110.16
2023-05-06T18:59:30.784Z,101117.84
2023-05-06T19:01:58.432Z,101118.94
2023-05-06T19:04:26.193Z,101116.44
2023-05-06T19:06:54.026Z,101120.03
2023-05-06T19:09:21.481Z,101130.28
2023-05-06T19:11:48.984Z,101112.31
2023-05-06T19:14:16.192Z,101124.53
2023-05-06T19:16:43.760Z,101117.03
2023-05-06T19:19:11.407Z,101120.91
2023-05-06T19:21:38.961Z,101120.22
2023-05-06T19:24:06.629Z,101133.91
2023-05-06T19:26:34.278Z,101123.34
2023-05-06T19:29:01.623Z,101123.22
2023-05-06T19:31:29.291Z,101116.06
2023-05-06T19:33:56.858Z,101124.72
2023-05-06T19:36:24.375Z,101131.16
2023-05-06T19:38:52.005Z,101114.47
2023-05-06T19:41:19.759Z,101094.63
2023-05-06T19:43:47.063Z,101088.97
2023-05-06T19:46:16.208Z,101133.31
2023-05-06T19:48:43.435Z,101118.22
2023-05-06T19:51:10.961Z,101130.00
2023-05-06T19:53:38.324Z,101124.22
2023-05-06T19:56:10.340Z,101132.13
2023-05-06T19:58:38.032Z,101097.00
2023-05-06T20:01:05.635Z,101121.97
2023-05-06T20:03:33.172Z,101127.13
2023-05-06T20:06:00.849Z,101131.28
2023-05-06T20:08:28.186Z,101094.22
2023-05-06T20:10:55.945Z,101136.44
2023-05-06T20:13:23.276Z,101128.63
2023-05-06T20:15:51.090Z,101123.47
2023-05-06T20:18:18.426Z,101100.22
2023-05-06T20:20:47.251Z,101090.69
2023-05-06T20:23:14.521Z,101122.94
2023-05-06T20:25:42.057Z,101122.50
2023-05-06T20:28:09.392Z,101098.09
2023-05-06T20:30:38.486Z,101125.81
2023-05-06T20:33:06.136Z,101128.38
2023-05-06T20:35:38.355Z,101120.59
2023-05-06T20:38:06.642Z,101087.38
2023-05-06T20:40:35.820Z,101127.19
2023-05-06T20:43:03.304Z,101133.53
2023-05-06T20:45:31.573Z,101136.75
2023-05-06T20:48:00.076Z,101140.63
2023-05-06T20:50:29.621Z,101123.88
2023-05-06T20:52:57.183Z,101144.44
2023-05-06T20:55:25.849Z,101144.13
2023-05-06T20:57:53.310Z,101151.28
2023-05-06T21:00:21.477Z,101140.59
2023-05-06T21:02:48.857Z,101113.16
2023-05-06T21:05:16.855Z,101150.22
2023-05-06T21:07:44.186Z,101138.88
2023-05-06T21:10:11.761Z,101140.38
2023-05-06T21:12:39.196Z,101141.53
2023-05-06T21:15:07.298Z,101147.00
2023-05-06T21:17:34.982Z,101110.97
2023-05-06T21:20:04.184Z,101119.47
2023-05-06T21:22:33.318Z,101148.44
2023-05-06T21:25:01.139Z,101147.47
2023-05-06T21:27:28.468Z,101137.97
2023-05-06T21:29:56.851Z,101143.84
2023-05-06T21:32:24.383Z,101140.16
2023-05-06T21:34:52.070Z,101119.47
2023-05-06T21:37:19.267Z,101114.56
2023-05-06T21:39:46.811Z,101147.16
2023-05-06T21:42:14.062Z,101116.66
2023-05-06T21:44:41.550Z,101115.56
2023-05-06T21:47:09.568Z,101155.47
2023-05-06T21:49:37.331Z,101127.59
2023-05-06T21:52:06.423Z,101158.19
2023-05-06T21:54:33.924Z,101149.59
2023-05-06T21:57:01.174Z,101129.63
2023-05-06T21:59:28.795Z,101110.03
2023-05-06T22:01:56.165Z,101114.63
2023-05-06T22:04:23.916Z,101151.75
2023-05-06T22:06:51.181Z,101125.16
2023-05-06T22:09:20.984Z,101123.56
2023-05-06T22:11:48.240Z,101155.41
2023-05-06T22:14:17.084Z,101168.22
2023-05-06T22:16:47.453Z,101167.28
2023-05-06T22:19:15.182Z,101160.00
2023-05-06T22:21:42.456Z,101152.19
2023-05-06T22:24:10.035Z,101126.34
2023-05-06T22:26:37.277Z,101154.09
2023-05-06T22:29:04.857Z,101154.50
2023-05-06T22:31:32.309Z,101152.94
2023-05-06T22:34:04.489Z,101153.47
2023-05-06T22:36:34.480Z,101151.53
2023-05-06T22:39:02.819Z,101153.03
2023-05-06T22:41:30.811Z,101147.03
2023-05-06T22:43:59.837Z,101150.34
2023-05-06T22:46:28.133Z,101148.44
2023-05-06T22:48:55.845Z,101133.78
2023-05-06T22:51:23.451Z,101106.34
2023-05-06T22:53:51.023Z,101123.38
2023-05-06T22:56:20.014Z,101154.75
2023-05-06T22:58:47.654Z,101119.84
2023-05-06T23:01:14.944Z,101156.03
2023-05-06T23:03:42.543Z,101132.03
2023-05-06T23:06:11.460Z,101131.59
2023-05-06T23:08:39.046Z,101162.59
2023-05-06T23:11:06.296Z,101168.59
2023-05-06T23:13:36.500Z,101162.78
2023-05-06T23:16:03.971Z,101173.59
2023-05-06T23:18:31.477Z,101162.03
2023-05-06T23:20:58.801Z,101168.56
2023-05-06T23:23:26.394Z,101164.38
2023-05-06T23:25:53.626Z,101165.66
2023-05-06T23:28:21.301Z,101170.47
2023-05-06T23:30:48.641Z,101142.84
2023-05-06T23:33:16.374Z,101161.22
2023-05-06T23:35:44.095Z,101184.50
2023-05-06T23:38:11.610Z,101184.50
2023-05-06T23:40:38.823Z,101152.47
2023-05-06T23:43:09.841Z,101147.06
2023-05-06T23:45:37.651Z,101148.59
2023-05-06T23:48:05.737Z,101151.91
2023-05-06T23:50:33.030Z,101160.50
2023-05-06T23:53:00.708Z,101152.81
2023-05-06T23:55:28.973Z,101190.94
2023-05-06T23:57:56.739Z,101182.16
